Terminal Aerodrome Forecast
Issued by NWS

Home | Current Version | Previous Version | Text Only | Print | Product List | Glossary On
Versions: 1 2 3 4 5 6 7 8 9 10 11 12 13 14 15 16
031
FTUS43 KIND 140806 AAA
TAFHUF
TAF AMD
KHUF 140806Z 1408/1506 11006KT P6SM SCT040 OVC080
      TEMPO 1410/1412 3SM -SN BR OVC040
     FM141200 12011KT 3SM -SN BR OVC020
     FM141500 13013KT 1/2SM SN FZFG OVC007
     FM142100 14010KT 4SM -SHSN BR OVC009=

USA.gov is the U.S. government's official web portal to all federal, state and local government web resources and services.